createdAt,value
2023-04-11T00:02:00.815Z,2.78
2023-04-11T00:04:28.693Z,4.50
2023-04-11T00:06:57.364Z,4.55
2023-04-11T00:09:25.615Z,3.85
2023-04-11T00:11:53.217Z,3.45
2023-04-11T00:14:20.633Z,3.05
2023-04-11T00:16:49.679Z,3.70
2023-04-11T00:19:17.628Z,4.22
2023-04-11T00:21:45.120Z,4.40
2023-04-11T00:24:12.352Z,4.07
2023-04-11T00:26:45.703Z,4.15
2023-04-11T00:29:13.406Z,4.05
2023-04-11T00:31:40.595Z,3.75
2023-04-11T00:34:10.295Z,5.95
2023-04-11T00:36:37.795Z,4.07
2023-04-11T00:39:05.979Z,3.50
2023-04-11T00:41:34.110Z,2.78
2023-04-11T00:44:01.698Z,3.25
2023-04-11T00:46:29.491Z,5.75
2023-04-11T00:48:57.158Z,3.45
2023-04-11T00:51:24.461Z,5.30
2023-04-11T00:53:51.871Z,5.30
2023-04-11T00:56:19.517Z,3.53
2023-04-11T00:58:47.128Z,3.00
2023-04-11T01:01:16.591Z,3.08
2023-04-11T01:03:45.434Z,4.70
2023-04-11T01:06:16.857Z,3.65
2023-04-11T01:08:46.317Z,4.55
2023-04-11T01:11:16.434Z,3.92
2023-04-11T01:13:43.821Z,4.00
2023-04-11T01:16:15.127Z,5.78
2023-04-11T01:18:42.900Z,4.68
2023-04-11T01:21:10.167Z,4.10
2023-04-11T01:23:37.405Z,5.05
2023-04-11T01:26:05.717Z,3.00
2023-04-11T01:28:33.546Z,4.07
2023-04-11T01:31:02.930Z,4.38
2023-04-11T01:33:30.470Z,4.47
2023-04-11T01:35:58.528Z,3.90
2023-04-11T01:38:26.275Z,4.68
2023-04-11T01:40:56.113Z,4.43
2023-04-11T01:43:23.665Z,3.15
2023-04-11T01:45:56.088Z,3.13
2023-04-11T01:48:23.853Z,3.85
2023-04-11T01:50:51.876Z,2.92
2023-04-11T01:53:19.063Z,3.05
2023-04-11T01:55:46.319Z,3.97
2023-04-11T01:58:14.036Z,3.25
2023-04-11T02:00:41.476Z,3.70
2023-04-11T02:03:08.851Z,3.88
2023-04-11T02:05:37.336Z,3.58
2023-04-11T02:08:05.994Z,3.55
2023-04-11T02:10:33.499Z,2.63
2023-04-11T02:13:00.755Z,3.45
2023-04-11T02:15:28.440Z,4.25
2023-04-11T02:17:57.166Z,2.67
2023-04-11T02:20:24.542Z,4.03
2023-04-11T02:22:51.835Z,2.92
2023-04-11T02:25:24.040Z,3.55
2023-04-11T02:27:52.114Z,3.35
2023-04-11T02:30:19.335Z,3.78
2023-04-11T02:32:46.623Z,3.70
2023-04-11T02:35:16.775Z,3.67
2023-04-11T02:37:44.503Z,4.03
2023-04-11T02:40:12.271Z,4.13
2023-04-11T02:42:42.947Z,3.10
2023-04-11T02:45:11.823Z,3.92
2023-04-11T02:47:40.412Z,4.13
2023-04-11T02:50:09.961Z,2.35
2023-04-11T02:52:47.686Z,2.90
2023-04-11T02:55:17.245Z,4.05
2023-04-11T02:57:45.400Z,4.18
2023-04-11T03:00:18.634Z,3.47
2023-04-11T03:02:50.445Z,3.13
2023-04-11T03:05:22.548Z,2.63
2023-04-11T03:07:57.928Z,2.88
2023-04-11T03:10:27.686Z,3.20
2023-04-11T03:12:55.554Z,3.42
2023-04-11T03:15:23.860Z,3.05
2023-04-11T03:17:51.414Z,5.45
2023-04-11T03:20:19.709Z,2.95
2023-04-11T03:22:50.062Z,3.85
2023-04-11T03:25:23.964Z,4.80
2023-04-11T03:27:52.381Z,3.42
2023-04-11T03:30:20.112Z,3.53
2023-04-11T03:32:48.401Z,4.30
2023-04-11T03:35:16.982Z,2.58
2023-04-11T03:37:47.941Z,3.38
2023-04-11T03:40:18.681Z,4.15
2023-04-11T03:42:52.559Z,4.15
2023-04-11T03:45:24.926Z,4.22
2023-04-11T03:47:54.804Z,5.55
2023-04-11T03:50:26.123Z,4.55
2023-04-11T03:52:58.489Z,4.38
2023-04-11T03:55:26.157Z,5.03
2023-04-11T03:57:55.534Z,4.47
2023-04-11T04:00:23.865Z,4.15
2023-04-11T04:03:03.924Z,5.88
2023-04-11T04:05:32.566Z,4.75
2023-04-11T04:08:01.834Z,3.65
2023-04-11T04:10:49.498Z,7.72
2023-04-11T04:13:16.924Z,4.78
2023-04-11T04:15:53.735Z,5.10
2023-04-11T04:18:25.156Z,6.10
2023-04-11T04:20:52.480Z,6.65
2023-04-11T04:23:21.224Z,5.68
2023-04-11T04:25:58.245Z,4.55
2023-04-11T04:28:29.523Z,5.45
2023-04-11T04:30:59.364Z,7.68
2023-04-11T04:33:32.972Z,5.45
2023-04-11T04:36:04.162Z,6.68
2023-04-11T04:38:38.444Z,6.65
2023-04-11T04:41:21.961Z,3.88
2023-04-11T04:43:58.418Z,6.90
2023-04-11T04:46:43.706Z,4.38
2023-04-11T04:49:11.818Z,5.68
2023-04-11T04:51:40.526Z,5.53
2023-04-11T04:54:07.959Z,5.65
2023-04-11T04:56:35.710Z,3.80
2023-04-11T04:59:03.961Z,4.88
2023-04-11T05:01:40.048Z,4.53
2023-04-11T05:04:10.503Z,3.58
2023-04-11T05:06:53.046Z,4.15
2023-04-11T05:09:21.203Z,5.30
2023-04-11T05:11:50.749Z,2.40
2023-04-11T05:14:18.875Z,4.18
2023-04-11T05:16:46.407Z,3.22
2023-04-11T05:19:14.081Z,2.58
2023-04-11T05:21:46.203Z,2.85
2023-04-11T05:24:13.547Z,3.95
2023-04-11T05:26:41.426Z,3.05
2023-04-11T05:29:11.425Z,2.55
2023-04-11T05:31:38.711Z,5.53
2023-04-11T05:34:09.951Z,3.45
2023-04-11T05:36:37.876Z,4.20
2023-04-11T05:39:09.310Z,3.53
2023-04-11T05:41:36.688Z,3.58
2023-04-11T05:44:07.482Z,3.95
2023-04-11T05:46:37.557Z,4.95
2023-04-11T05:49:04.979Z,3.53
2023-04-11T05:51:32.099Z,5.28
2023-04-11T05:53:59.305Z,5.15
2023-04-11T05:56:26.776Z,4.78
2023-04-11T05:58:54.092Z,5.05
2023-04-11T06:01:22.131Z,4.82
2023-04-11T06:03:54.879Z,6.82
2023-04-11T06:06:24.066Z,4.22
2023-04-11T06:08:51.840Z,3.83
2023-04-11T06:11:19.185Z,4.25
2023-04-11T06:13:46.465Z,2.95
2023-04-11T06:16:13.662Z,3.63
2023-04-11T06:18:40.949Z,3.65
2023-04-11T06:21:08.200Z,3.80
2023-04-11T06:23:35.768Z,3.42
2023-04-11T06:26:03.605Z,3.38
2023-04-11T06:28:31.093Z,6.45
2023-04-11T06:30:58.544Z,2.95
2023-04-11T06:33:25.867Z,3.60
2023-04-11T06:35:52.979Z,6.30
2023-04-11T06:38:20.802Z,3.40
2023-04-11T06:40:48.881Z,2.15
2023-04-11T06:43:16.043Z,3.03
2023-04-11T06:45:49.201Z,6.30
2023-04-11T06:48:17.969Z,4.13
2023-04-11T06:50:45.932Z,2.63
2023-04-11T06:53:13.140Z,3.80
2023-04-11T06:55:40.370Z,2.45
2023-04-11T06:58:07.625Z,5.47
2023-04-11T07:00:34.873Z,2.72
2023-04-11T07:03:07.845Z,4.10
2023-04-11T07:05:39.680Z,4.82
2023-04-11T07:08:08.297Z,2.55
2023-04-11T07:10:35.899Z,4.47
2023-04-11T07:13:03.202Z,4.82
2023-04-11T07:15:31.076Z,5.25
2023-04-11T07:17:58.487Z,3.30
2023-04-11T07:20:26.040Z,2.85
2023-04-11T07:22:54.066Z,4.15
2023-04-11T07:25:30.797Z,3.35
2023-04-11T07:27:58.598Z,4.13
2023-04-11T07:30:26.803Z,2.65
2023-04-11T07:32:54.335Z,3.10
2023-04-11T07:35:22.611Z,4.43
2023-04-11T07:37:50.003Z,3.35
2023-04-11T07:40:17.356Z,4.63
2023-04-11T07:42:46.861Z,3.65
2023-04-11T07:45:15.075Z,4.85
2023-04-11T07:47:42.301Z,2.50
2023-04-11T07:50:10.421Z,5.30
2023-04-11T07:52:37.674Z,3.97
2023-04-11T07:55:06.014Z,3.47
2023-04-11T07:57:33.395Z,3.15
2023-04-11T08:00:00.799Z,4.47
2023-04-11T08:02:28.218Z,5.30
2023-04-11T08:04:55.997Z,6.43
2023-04-11T08:07:23.325Z,7.93
2023-04-11T08:09:50.447Z,4.75
2023-04-11T08:12:17.763Z,5.75
2023-04-11T08:14:44.948Z,5.28
2023-04-11T08:17:26.992Z,5.13
2023-04-11T08:19:57.715Z,4.78
2023-04-11T08:22:25.104Z,5.10
2023-04-11T08:24:52.716Z,5.20
2023-04-11T08:27:20.151Z,5.82
2023-04-11T08:29:47.305Z,5.07
2023-04-11T08:32:14.406Z,5.90
2023-04-11T08:34:41.760Z,6.35
2023-04-11T08:37:09.224Z,8.18
2023-04-11T08:39:36.725Z,7.22
2023-04-11T08:42:04.175Z,5.63
2023-04-11T08:44:31.354Z,7.32
2023-04-11T08:46:58.873Z,5.95
2023-04-11T08:49:26.075Z,8.30
2023-04-11T08:51:56.199Z,5.50
2023-04-11T08:54:23.466Z,6.05
2023-04-11T08:56:51.159Z,6.22
2023-04-11T08:59:18.706Z,8.48
2023-04-11T09:01:46.070Z,7.32
2023-04-11T09:04:14.249Z,6.88
2023-04-11T09:07:00.486Z,5.20
2023-04-11T09:09:31.015Z,8.27
2023-04-11T09:11:58.935Z,4.97
2023-04-11T09:14:27.243Z,5.10
2023-04-11T09:17:13.517Z,6.15
2023-04-11T09:19:47.584Z,4.80
2023-04-11T09:22:16.283Z,5.30
2023-04-11T09:24:43.516Z,5.50
2023-04-11T09:27:19.722Z,5.40
2023-04-11T09:29:48.824Z,4.82
2023-04-11T09:32:33.833Z,4.43
2023-04-11T09:35:24.181Z,7.68
2023-04-11T09:38:00.776Z,5.53
2023-04-11T09:40:31.809Z,3.88
2023-04-11T09:43:04.008Z,4.28
2023-04-11T09:45:38.128Z,4.95
2023-04-11T09:48:16.526Z,7.68
2023-04-11T09:50:44.219Z,5.60
2023-04-11T09:53:11.953Z,5.43
2023-04-11T09:55:39.643Z,6.45
2023-04-11T09:58:11.179Z,6.55
2023-04-11T10:00:41.573Z,3.95
2023-04-11T10:03:08.862Z,4.75
2023-04-11T10:05:39.812Z,3.70
2023-04-11T10:08:33.435Z,6.95
2023-04-11T10:11:03.193Z,5.25
2023-04-11T10:13:47.835Z,5.80
2023-04-11T10:16:22.213Z,5.75
2023-04-11T10:19:19.006Z,4.00
2023-04-11T10:21:46.693Z,6.93
2023-04-11T10:24:23.853Z,6.53
2023-04-11T10:26:59.373Z,5.00
2023-04-11T10:29:40.663Z,6.80
2023-04-11T10:32:19.009Z,5.43
2023-04-11T10:34:55.777Z,5.63
2023-04-11T10:37:43.401Z,4.10
2023-04-11T10:40:11.246Z,6.05
2023-04-11T10:42:44.987Z,6.43
2023-04-11T10:45:26.779Z,5.90
2023-04-11T10:47:57.036Z,5.05
2023-04-11T10:50:27.000Z,6.70
2023-04-11T10:52:59.875Z,6.60
2023-04-11T10:55:30.416Z,6.45
2023-04-11T10:58:14.102Z,6.63
2023-04-11T11:00:50.548Z,4.25
2023-04-11T11:03:21.130Z,5.93
2023-04-11T11:06:03.376Z,6.53
2023-04-11T11:08:34.836Z,6.22
2023-04-11T11:11:06.902Z,4.65
2023-04-11T11:13:55.882Z,6.25
2023-04-11T11:16:26.337Z,6.18
2023-04-11T11:18:56.664Z,7.65
2023-04-11T11:21:28.649Z,6.03
2023-04-11T11:24:04.069Z,6.20
2023-04-11T11:26:44.030Z,6.88
2023-04-11T11:29:12.183Z,4.72
2023-04-11T11:31:43.242Z,4.75
2023-04-11T11:36:46.802Z,4.97
2023-04-11T11:39:15.532Z,4.45
2023-04-11T11:41:42.768Z,3.88
2023-04-11T11:44:27.961Z,5.50
2023-04-11T11:47:15.428Z,5.90
2023-04-11T11:49:56.357Z,5.70
2023-04-11T11:52:44.424Z,6.20
2023-04-11T11:55:22.405Z,5.88
2023-04-11T11:57:50.853Z,5.43
2023-04-11T12:00:27.597Z,4.88
2023-04-11T12:02:57.580Z,4.18
2023-04-11T12:05:30.514Z,5.22
2023-04-11T12:08:04.128Z,5.38
2023-04-11T12:10:50.641Z,5.30
2023-04-11T12:13:25.527Z,5.20
2023-04-11T12:15:54.728Z,6.05
2023-04-11T12:18:24.610Z,4.28
2023-04-11T12:20:52.649Z,5.50
2023-04-11T12:23:21.234Z,5.22
2023-04-11T12:25:49.399Z,4.38
2023-04-11T12:28:16.981Z,4.90
2023-04-11T12:30:44.203Z,6.75
2023-04-11T12:33:11.362Z,4.75
2023-04-11T12:35:38.550Z,6.50
2023-04-11T12:38:07.689Z,6.50
2023-04-11T12:40:35.061Z,5.70
2023-04-11T12:43:02.552Z,4.57
2023-04-11T12:45:30.252Z,5.20
2023-04-11T12:47:57.679Z,6.22
2023-04-11T12:50:25.265Z,3.83
2023-04-11T12:52:53.788Z,4.90
2023-04-11T12:55:21.733Z,4.22
2023-04-11T12:57:49.163Z,4.85
2023-04-11T13:00:17.446Z,5.70
2023-04-11T13:02:45.608Z,4.50
2023-04-11T13:05:15.570Z,5.63
2023-04-11T13:07:45.077Z,3.88
2023-04-11T13:10:15.724Z,4.53
2023-04-11T13:12:47.960Z,4.60
2023-04-11T13:15:17.014Z,6.95
2023-04-11T13:17:44.916Z,4.88
2023-04-11T13:20:13.304Z,5.40
2023-04-11T13:22:42.913Z,4.32
2023-04-11T13:25:11.984Z,6.70
2023-04-11T13:27:40.114Z,5.18
2023-04-11T13:30:09.924Z,5.35
2023-04-11T13:32:37.458Z,7.60
2023-04-11T13:35:05.890Z,5.00
2023-04-11T13:37:33.413Z,5.63
2023-04-11T13:40:01.478Z,4.35
2023-04-11T13:42:28.679Z,6.28
2023-04-11T13:44:55.840Z,4.63
2023-04-11T13:47:23.273Z,5.32
2023-04-11T13:49:50.843Z,4.20
2023-04-11T13:52:18.099Z,5.22
2023-04-11T13:54:45.571Z,6.03
2023-04-11T13:57:12.695Z,5.10
2023-04-11T13:59:39.988Z,4.50
2023-04-11T14:02:07.240Z,4.63
2023-04-11T14:04:34.608Z,5.82
2023-04-11T14:07:01.884Z,6.00
2023-04-11T14:09:29.090Z,4.60
2023-04-11T14:11:56.953Z,4.45
2023-04-11T14:14:24.296Z,6.93
2023-04-11T14:16:51.453Z,4.15
2023-04-11T14:19:18.832Z,5.40
2023-04-11T14:21:46.506Z,6.57
2023-04-11T14:24:13.786Z,4.97
2023-04-11T14:26:41.378Z,5.13
2023-04-11T14:29:09.131Z,7.38
2023-04-11T14:31:36.840Z,4.80
2023-04-11T14:34:10.200Z,4.22
2023-04-11T14:36:37.945Z,4.70
2023-04-11T14:39:05.776Z,6.82
2023-04-11T14:41:33.075Z,5.75
2023-04-11T14:44:00.315Z,4.35
2023-04-11T14:46:28.724Z,4.95
2023-04-11T14:48:56.132Z,4.35
2023-04-11T14:51:27.054Z,6.15
2023-04-11T14:53:56.010Z,5.72
2023-04-11T14:56:24.471Z,5.60
2023-04-11T14:58:52.674Z,5.35
2023-04-11T15:01:20.167Z,5.55
2023-04-11T15:03:54.482Z,6.00
2023-04-11T15:06:22.277Z,5.50
2023-04-11T15:08:50.503Z,5.40
2023-04-11T15:11:18.451Z,7.47
2023-04-11T15:13:48.113Z,4.05
2023-04-11T15:16:15.949Z,5.60
2023-04-11T15:18:44.144Z,4.38
2023-04-11T15:21:11.381Z,4.38
2023-04-11T15:23:38.548Z,4.53
2023-04-11T15:26:07.735Z,5.93
2023-04-11T15:28:38.788Z,5.45
2023-04-11T15:31:12.842Z,9.15
2023-04-11T15:33:40.770Z,5.10
2023-04-11T15:36:08.827Z,6.95
2023-04-11T15:38:36.773Z,8.65
2023-04-11T15:41:04.289Z,6.45
2023-04-11T15:43:32.123Z,5.55
2023-04-11T15:46:04.126Z,5.45
2023-04-11T15:48:31.388Z,5.97
2023-04-11T15:50:58.965Z,5.20
2023-04-11T15:53:26.492Z,7.93
2023-04-11T15:55:54.078Z,6.68
2023-04-11T15:58:21.204Z,3.97
2023-04-11T16:00:48.311Z,5.43
2023-04-11T16:03:16.680Z,5.47
2023-04-11T16:05:45.065Z,6.32
2023-04-11T16:08:12.186Z,3.40
2023-04-11T16:10:39.556Z,6.05
2023-04-11T16:13:06.785Z,7.13
2023-04-11T16:15:34.110Z,7.10
2023-04-11T16:18:01.387Z,5.65
2023-04-11T16:20:28.954Z,7.18
2023-04-11T16:22:56.271Z,5.13
2023-04-11T16:25:24.734Z,5.60
2023-04-11T16:27:53.196Z,5.00
2023-04-11T16:30:20.674Z,4.95
2023-04-11T16:32:48.062Z,3.80
2023-04-11T16:35:15.436Z,6.43
2023-04-11T16:37:43.042Z,7.10
2023-04-11T16:40:13.632Z,5.25
2023-04-11T16:42:45.498Z,7.32
2023-04-11T16:45:14.307Z,6.95
2023-04-11T16:47:43.336Z,3.22
2023-04-11T16:50:11.937Z,4.82
2023-04-11T16:52:39.274Z,4.53
2023-04-11T16:55:06.904Z,4.78
2023-04-11T16:57:34.676Z,5.93
2023-04-11T17:00:16.353Z,6.03
2023-04-11T17:02:43.719Z,6.03
2023-04-11T17:05:14.943Z,6.60
2023-04-11T17:07:43.768Z,6.28
2023-04-11T17:10:11.951Z,7.75
2023-04-11T17:12:39.805Z,5.22
2023-04-11T17:15:08.551Z,6.07
2023-04-11T17:17:36.868Z,6.15
2023-04-11T17:20:09.266Z,9.23
2023-04-11T17:22:36.973Z,5.18
2023-04-11T17:25:04.874Z,7.15
2023-04-11T17:27:33.317Z,5.18
2023-04-11T17:30:01.306Z,5.15
2023-04-11T17:32:29.270Z,8.50
2023-04-11T17:34:56.613Z,6.82
2023-04-11T17:37:24.527Z,6.45
2023-04-11T17:39:52.156Z,8.30
2023-04-11T17:42:19.356Z,7.30
2023-04-11T17:44:46.792Z,8.73
2023-04-11T17:47:14.344Z,7.07
2023-04-11T17:49:41.845Z,6.25
2023-04-11T17:52:09.308Z,11.82
2023-04-11T17:54:36.628Z,14.70
2023-04-11T17:57:04.414Z,8.85
2023-04-11T17:59:32.555Z,10.27
2023-04-11T18:01:59.771Z,7.93
2023-04-11T18:04:27.372Z,8.75
2023-04-11T18:06:56.320Z,11.43
2023-04-11T18:09:27.442Z,10.45
2023-04-11T18:11:55.548Z,7.90
2023-04-11T18:14:22.654Z,7.50
2023-04-11T18:16:49.861Z,8.98
2023-04-11T18:19:16.932Z,6.50
2023-04-11T18:21:44.066Z,9.20
2023-04-11T18:24:11.338Z,7.05
2023-04-11T18:26:39.177Z,8.02
2023-04-11T18:29:06.848Z,8.75
2023-04-11T18:31:35.238Z,7.97
2023-04-11T18:34:03.638Z,9.07
2023-04-11T18:36:35.966Z,4.40
2023-04-11T18:39:03.929Z,6.10
2023-04-11T18:41:31.138Z,7.28
2023-04-11T18:43:59.467Z,7.25
2023-04-11T18:46:28.433Z,7.15
2023-04-11T18:48:56.028Z,6.43
2023-04-11T18:51:23.501Z,7.60
2023-04-11T18:53:50.652Z,7.47
2023-04-11T18:56:18.450Z,10.05
2023-04-11T18:58:47.705Z,8.85
2023-04-11T19:01:17.497Z,8.10
2023-04-11T19:03:45.308Z,11.57
2023-04-11T19:06:20.094Z,7.75
2023-04-11T19:08:47.724Z,9.38
2023-04-11T19:11:15.834Z,10.20
2023-04-11T19:13:43.105Z,11.73
2023-04-11T19:16:10.833Z,9.50
2023-04-11T19:18:38.067Z,9.40
2023-04-11T19:21:05.983Z,8.63
2023-04-11T19:23:33.277Z,10.48
2023-04-11T19:26:00.962Z,11.85
2023-04-11T19:28:28.832Z,10.38
2023-04-11T19:30:56.471Z,10.82
2023-04-11T19:33:26.046Z,10.65
2023-04-11T19:35:54.304Z,7.95
2023-04-11T19:38:21.794Z,9.60
2023-04-11T19:40:49.390Z,8.73
2023-04-11T19:43:17.030Z,9.27
2023-04-11T19:45:50.568Z,11.15
2023-04-11T19:48:18.096Z,8.88
2023-04-11T19:50:45.407Z,10.98
2023-04-11T19:53:12.730Z,10.65
2023-04-11T19:55:40.296Z,10.25
2023-04-11T19:58:07.889Z,11.93
2023-04-11T20:00:37.572Z,9.45
2023-04-11T20:03:07.496Z,9.23
2023-04-11T20:05:36.187Z,9.27
2023-04-11T20:08:04.265Z,9.02
2023-04-11T20:10:31.804Z,7.65
2023-04-11T20:12:58.913Z,11.43
2023-04-11T20:15:27.366Z,9.48
2023-04-11T20:17:54.583Z,10.52
2023-04-11T20:20:22.320Z,9.48
2023-04-11T20:22:49.537Z,14.70
2023-04-11T20:25:16.887Z,10.32
2023-04-11T20:27:50.070Z,10.13
2023-04-11T20:30:18.691Z,9.00
2023-04-11T20:32:46.471Z,10.27
2023-04-11T20:35:14.589Z,10.70
2023-04-11T20:37:43.597Z,10.25
2023-04-11T20:40:13.921Z,9.95
2023-04-11T20:42:47.634Z,11.10
2023-04-11T20:45:18.247Z,11.20
2023-04-11T20:47:47.404Z,8.52
2023-04-11T20:50:17.520Z,9.52
2023-04-11T20:52:48.027Z,12.45
2023-04-11T20:55:15.594Z,9.02
2023-04-11T20:57:44.909Z,9.75
2023-04-11T21:00:14.706Z,9.45
2023-04-11T21:02:45.796Z,10.35
2023-04-11T21:05:19.939Z,10.32
2023-04-11T21:07:47.299Z,10.15
2023-04-11T21:10:15.622Z,8.15
2023-04-11T21:12:43.289Z,9.02
2023-04-11T21:15:11.892Z,10.75
2023-04-11T21:17:39.623Z,9.57
2023-04-11T21:20:18.120Z,11.40
2023-04-11T21:22:53.161Z,8.50
2023-04-11T21:25:25.515Z,10.15
2023-04-11T21:27:53.502Z,11.95
2023-04-11T21:30:20.866Z,10.15
2023-04-11T21:32:48.112Z,11.98
2023-04-11T21:35:15.769Z,8.88
2023-04-11T21:37:43.206Z,8.95
2023-04-11T21:40:12.935Z,9.75
2023-04-11T21:42:46.433Z,9.00
2023-04-11T21:45:14.121Z,13.48
2023-04-11T21:47:41.990Z,11.13
2023-04-11T21:50:10.419Z,13.27
2023-04-11T21:52:37.779Z,10.70
2023-04-11T21:55:08.839Z,9.38
2023-04-11T21:57:37.000Z,8.35
2023-04-11T22:00:07.574Z,10.38
2023-04-11T22:02:43.048Z,12.23
2023-04-11T22:05:17.572Z,8.40
2023-04-11T22:07:48.141Z,10.63
2023-04-11T22:10:22.312Z,7.00
2023-04-11T22:12:50.110Z,11.32
2023-04-11T22:15:18.318Z,8.70
2023-04-11T22:17:50.315Z,8.90
2023-04-11T22:20:18.363Z,9.18
2023-04-11T22:22:45.853Z,14.00
2023-04-11T22:25:14.740Z,10.70
2023-04-11T22:27:44.492Z,11.38
2023-04-11T22:30:14.202Z,9.77
2023-04-11T22:32:41.401Z,11.95
2023-04-11T22:35:10.422Z,11.48
2023-04-11T22:37:37.747Z,9.77
2023-04-11T22:40:06.212Z,9.55
2023-04-11T22:42:33.874Z,10.02
2023-04-11T22:45:00.997Z,8.68
2023-04-11T22:47:29.121Z,10.95
2023-04-11T22:49:57.961Z,8.48
2023-04-11T22:52:26.341Z,9.40
2023-04-11T22:54:54.977Z,9.65
2023-04-11T22:57:22.790Z,10.52
2023-04-11T22:59:50.087Z,12.05
2023-04-11T23:02:17.441Z,9.13
2023-04-11T23:04:45.368Z,7.10
2023-04-11T23:07:12.812Z,11.10
2023-04-11T23:09:40.242Z,9.15
2023-04-11T23:12:08.211Z,9.73
2023-04-11T23:14:35.342Z,9.70
2023-04-11T23:17:02.937Z,8.50
2023-04-11T23:19:30.195Z,10.60
2023-04-11T23:21:57.797Z,9.98
2023-04-11T23:24:24.942Z,8.23
2023-04-11T23:26:52.679Z,9.73
2023-04-11T23:29:20.422Z,7.32
2023-04-11T23:31:47.527Z,9.20
2023-04-11T23:34:15.358Z,8.35
2023-04-11T23:36:43.405Z,7.95
2023-04-11T23:39:10.771Z,9.32
2023-04-11T23:41:38.005Z,11.07
2023-04-11T23:44:05.280Z,9.10
2023-04-11T23:46:33.022Z,7.80
2023-04-11T23:49:00.904Z,7.57
2023-04-11T23:51:28.328Z,7.75
2023-04-11T23:53:55.879Z,10.30
2023-04-11T23:56:23.859Z,6.75
2023-04-11T23:58:51.404Z,10.20
